Little's Farm

CA-0442 · 安大略, 加拿大

罗盘
风向 的 风向 的 风向 到 风向 250°
风向 到 风: 13 kt, 阵阵 22 kt, 4 beaufort

添加一条跑道以查看侧风和逆风信息。

添置 跑道
0 1.000 2.000 3.000 4.000 5.000
OVC 1.000 ft
SPECI CYYZ 031510Z 25013G22KT 190V260 1 1/2SM +RA BR OVC010 10/10 A2963 RMK RA2NS6 SLP040

METAR Little's Farm - CA-0442

Little's Farm是,加拿大中的小机场。 该领域的国际民航组织标志是CA-0442.

这份报告是针对2022年12月3日 10:10, 当地时间在多倫多皮爾遜國際機場进行的。

机场观察

风向为250°,速度为13 kt。 已测得22 kt的阵风。 风向在190°和260°之间变化。

可见度为1½ mi。

有乌云密布在1.000 ft的高度。 破损或更高的上限为1.000 ft。

当前天气为倾盆大 雨, 薄雾。 温度为10 °C,阵风为6 °C。 露点为10 °C,相对湿度为100%。 海平面上的气压为29,63 inHg (QNH)。

白天

今天,太阳从07:35升起,在16:42降落。 这适用于Little's Farm,世界夏令时可能有所不同。 当地时间与世界标准时间之间的时差为-5 小时。 当前,没有夏令时有效。

公司介绍

我们没有关于这个机场的公司信息。

体会

到Vliegles.nl去找飞行课程,跳伞和其他飞行体验。 浏览页面,了解Little's Farm附近所有可用的活动。 你也可以使用搜索功能来寻找你所在地附近的特定飞行课程、跳伞或其他飞行体验。

乌云

1.000 ft OVC 乌云密布

温度 & 天气

天气 倾盆大 雨
薄雾
温度 10 °C
露点 10 °C
相对湿度 100%
风寒 6 °C
Kp-index 1 (0-9)

评论

SLP040海平面压力为29,65 inHg (29,65 inHg)
RA2NS6

白天

日出
07:34
中午
12:08
日落
16:42 (6:14)

小工具

你想在你的网站上有一个关于Little's Farm的当前航空天气(METAR)的小部件吗?

显示HTML代码

我们和第三方通过cookies跟踪您在我们网站上的互联网行为。如果你继续,我们认为你同意我们的饼干政策